Time;durP1;ratioP1;P1;durP2;ratioP2;P2;SDS_P1;SDS_P2;PMS_P1;PMS_P2;Temp;Humidity;BMP_temperature;BMP_pressure;BME280_temperature;BME280_humidity;BME280_pressure;Samples;Min_cycle;Max_cycle;Signal;HPM_P1;HPM_P2
2023/05/11 02:22:06;;;;;;;1999.90;999.90;;;;;;;;;;5033121;23;20247;-73
2023/05/11 02:24:51;;;;;;;1999.90;999.90;;;;;;;;;;4971202;28;20483;-71
2023/05/11 02:27:36;;;;;;;1999.90;999.90;;;;;;;;;;4976968;28;20730;-72
2023/05/11 02:30:22;;;;;;;1999.90;999.90;;;;;;;;;;4965229;28;20240;-67
2023/05/11 02:33:08;;;;;;;1999.90;999.90;;;;;;;;;;4955837;28;20227;-68
2023/05/11 02:35:55;;;;;;;1999.90;999.90;;;;;;;;;;4949946;28;20259;-68
2023/05/11 02:38:42;;;;;;;1999.90;999.90;;;;;;;;;;4959533;28;20291;-71
2023/05/11 02:41:28;;;;;;;1999.90;999.90;;;;;;;;;;4954471;28;20232;-66
2023/05/11 02:44:15;;;;;;;1999.90;999.90;;;;;;;;;;4957255;28;20324;-70
2023/05/11 02:47:02;;;;;;;1999.90;999.90;;;;;;;;;;4958593;28;20212;-71
2023/05/11 02:49:48;;;;;;;1999.90;999.90;;;;;;;;;;4967663;28;20216;-67
2023/05/11 02:52:34;;;;;;;1999.90;999.90;;;;;;;;;;4958704;28;20223;-69
2023/05/11 02:55:21;;;;;;;1999.90;999.90;;;;;;;;;;4962082;28;20600;-69
2023/05/11 02:58:07;;;;;;;1999.90;999.90;;;;;;;;;;4953677;28;20797;-69
2023/05/11 03:00:52;;;;;;;1999.90;999.90;;;;;;;;;;4964107;28;20227;-72
2023/05/11 03:03:37;;;;;;;1999.90;999.90;;;;;;;;;;4961260;28;20213;-71
2023/05/11 03:06:22;;;;;;;1999.90;999.90;;;;;;;;;;4957772;28;20307;-72
2023/05/11 03:09:07;;;;;;;1999.90;999.90;;;;;;;;;;4952189;28;20329;-71
2023/05/11 03:11:53;;;;;;;1999.90;999.90;;;;;;;;;;4956951;28;20364;-71
2023/05/11 03:14:39;;;;;;;1999.90;999.90;;;;;;;;;;4963790;28;20907;-72
2023/05/11 03:17:25;;;;;;;1999.90;999.90;;;;;;;;;;4965595;28;20700;-70
2023/05/11 03:20:10;;;;;;;1999.90;999.90;;;;;;;;;;4939582;28;20231;-72
2023/05/11 03:22:55;;;;;;;1999.90;999.90;;;;;;;;;;4972946;28;20585;-70
2023/05/11 03:25:41;;;;;;;1999.90;999.90;;;;;;;;;;4957101;28;20341;-72
2023/05/11 03:28:27;;;;;;;1999.90;999.90;;;;;;;;;;4972449;28;20212;-72
2023/05/11 03:31:13;;;;;;;1999.90;999.90;;;;;;;;;;4961232;28;20759;-72
2023/05/11 03:33:58;;;;;;;1999.90;999.90;;;;;;;;;;4972425;28;20327;-72
2023/05/11 03:36:44;;;;;;;1999.90;999.90;;;;;;;;;;4963270;28;20265;-71
2023/05/11 03:39:30;;;;;;;1999.90;999.90;;;;;;;;;;4969376;28;20219;-71
2023/05/11 03:42:15;;;;;;;1999.90;999.90;;;;;;;;;;4966902;28;20705;-72
2023/05/11 03:45:02;;;;;;;1999.90;999.90;;;;;;;;;;4953398;29;20213;-72
2023/05/11 03:47:48;;;;;;;1999.90;999.90;;;;;;;;;;4953018;29;20737;-72
2023/05/11 03:50:33;;;;;;;1999.90;999.90;;;;;;;;;;4953155;28;20254;-73
2023/05/11 03:53:18;;;;;;;1999.90;999.90;;;;;;;;;;4953074;29;20224;-72
2023/05/11 03:56:03;;;;;;;1999.90;999.90;;;;;;;;;;4953424;29;20693;-73
2023/05/11 03:58:49;;;;;;;1999.90;999.90;;;;;;;;;;4953000;29;20232;-73
2023/05/11 04:01:35;;;;;;;1999.90;999.90;;;;;;;;;;4953089;28;20332;-72
2023/05/11 04:04:20;;;;;;;1999.90;999.90;;;;;;;;;;4954680;28;20400;-72
2023/05/11 04:07:04;;;;;;;1999.90;999.90;;;;;;;;;;4956505;29;20221;-72
2023/05/11 04:09:49;;;;;;;1999.90;999.90;;;;;;;;;;4956447;28;20296;-73
2023/05/11 04:12:34;;;;;;;1999.90;999.90;;;;;;;;;;4948604;28;20304;-72
2023/05/11 04:15:19;;;;;;;1999.90;999.90;;;;;;;;;;4975351;28;20215;-72
2023/05/11 04:18:05;;;;;;;1999.90;999.90;;;;;;;;;;4971446;28;20213;-72
2023/05/11 04:20:50;;;;;;;1999.90;999.90;;;;;;;;;;4966300;28;20247;-72
2023/05/11 04:23:35;;;;;;;1999.90;999.90;;;;;;;;;;4975332;28;20281;-72
2023/05/11 04:26:21;;;;;;;1999.90;999.90;;;;;;;;;;4975250;28;20212;-72
2023/05/11 04:29:06;;;;;;;1999.90;999.90;;;;;;;;;;4975195;28;20316;-73
2023/05/11 04:31:51;;;;;;;1999.90;999.90;;;;;;;;;;4975351;28;20808;-72
2023/05/11 04:34:37;;;;;;;1999.90;999.90;;;;;;;;;;4967131;28;20224;-72
2023/05/11 04:37:22;;;;;;;1999.90;999.90;;;;;;;;;;4962061;28;20715;-72
2023/05/11 04:40:07;;;;;;;1999.90;999.90;;;;;;;;;;4975252;28;20235;-72
2023/05/11 04:42:53;;;;;;;1999.90;999.90;;;;;;;;;;4974686;28;20463;-72
2023/05/11 04:45:37;;;;;;;1999.90;999.90;;;;;;;;;;4975132;28;20335;-72
2023/05/11 04:48:23;;;;;;;1999.90;999.90;;;;;;;;;;4974723;28;20204;-72
2023/05/11 04:51:09;;;;;;;1999.90;999.90;;;;;;;;;;4975006;28;20239;-70
2023/05/11 04:53:54;;;;;;;1999.90;999.90;;;;;;;;;;4974491;28;20232;-71
2023/05/11 04:56:39;;;;;;;1999.90;999.90;;;;;;;;;;4974533;28;20216;-70
2023/05/11 04:59:24;;;;;;;1999.90;999.90;;;;;;;;;;4974388;28;20469;-70
2023/05/11 05:02:09;;;;;;;1999.90;999.90;;;;;;;;;;4974859;28;20211;-70
2023/05/11 05:04:54;;;;;;;1999.90;999.90;;;;;;;;;;4974792;28;20219;-70
2023/05/11 05:07:40;;;;;;;1999.90;999.90;;;;;;;;;;4974094;28;20307;-70
2023/05/11 05:10:25;;;;;;;1999.90;999.90;;;;;;;;;;4974660;28;20359;-70
2023/05/11 05:13:10;;;;;;;1999.90;999.90;;;;;;;;;;4974489;28;20739;-71
2023/05/11 05:15:55;;;;;;;1999.90;999.90;;;;;;;;;;4958401;28;20220;-67
2023/05/11 05:18:40;;;;;;;1999.90;999.90;;;;;;;;;;4960911;28;20215;-72
2023/05/11 05:21:25;;;;;;;1999.90;999.90;;;;;;;;;;4966940;28;20239;-71
2023/05/11 05:24:11;;;;;;;1999.90;999.90;;;;;;;;;;4969830;28;20204;-72
2023/05/11 05:26:56;;;;;;;1999.90;999.90;;;;;;;;;;4962525;28;20236;-72
2023/05/11 05:29:41;;;;;;;1999.90;999.90;;;;;;;;;;4966190;28;20215;-69
2023/05/11 05:32:26;;;;;;;1999.90;999.90;;;;;;;;;;4956368;28;20209;-68
2023/05/11 05:35:12;;;;;;;1999.90;999.90;;;;;;;;;;4957511;28;20228;-70
2023/05/11 05:37:56;;;;;;;1999.90;999.90;;;;;;;;;;4958067;28;20544;-72
2023/05/11 05:40:43;;;;;;;1999.90;999.90;;;;;;;;;;4951879;28;20240;-72
2023/05/11 05:43:27;;;;;;;1999.90;999.90;;;;;;;;;;4953563;28;20568;-72
2023/05/11 05:46:12;;;;;;;1999.90;999.90;;;;;;;;;;4958195;28;20245;-73
2023/05/11 05:48:57;;;;;;;1999.90;999.90;;;;;;;;;;4966822;28;20232;-68
2023/05/11 05:51:42;;;;;;;1999.90;999.90;;;;;;;;;;4957868;28;20232;-72
2023/05/11 05:54:27;;;;;;;1999.90;999.90;;;;;;;;;;4956287;28;20634;-68
2023/05/11 05:57:13;;;;;;;1999.90;999.90;;;;;;;;;;4955336;28;20212;-67
2023/05/11 05:59:58;;;;;;;1999.90;999.90;;;;;;;;;;4963482;28;20351;-69
2023/05/11 06:02:43;;;;;;;1999.90;999.90;;;;;;;;;;4956215;28;20216;-71
2023/05/11 06:05:28;;;;;;;1999.90;999.90;;;;;;;;;;4956116;28;20291;-69
2023/05/11 06:08:13;;;;;;;1999.90;999.90;;;;;;;;;;4947554;28;20685;-69
2023/05/11 06:10:58;;;;;;;1999.90;999.90;;;;;;;;;;4958372;28;20233;-71
2023/05/11 06:13:44;;;;;;;1999.90;999.90;;;;;;;;;;4966105;28;20363;-72
2023/05/11 06:16:29;;;;;;;1999.90;999.90;;;;;;;;;;4968845;28;20331;-71
2023/05/11 06:19:15;;;;;;;1999.90;999.90;;;;;;;;;;4956798;28;20756;-72
2023/05/11 06:22:00;;;;;;;1999.90;999.90;;;;;;;;;;4961953;28;20255;-70
2023/05/11 06:24:45;;;;;;;1999.90;999.90;;;;;;;;;;4959209;28;20337;-72
2023/05/11 06:27:30;;;;;;;1999.90;999.90;;;;;;;;;;4960273;28;20208;-71
2023/05/11 06:30:16;;;;;;;1999.90;999.90;;;;;;;;;;4955144;28;20288;-69
2023/05/11 06:33:01;;;;;;;1999.90;999.90;;;;;;;;;;4957595;28;20240;-72
2023/05/11 06:35:46;;;;;;;1999.90;999.90;;;;;;;;;;4960469;28;20212;-71
2023/05/11 06:38:31;;;;;;;1999.90;999.90;;;;;;;;;;4956216;28;20204;-68
2023/05/11 06:41:17;;;;;;;1999.90;999.90;;;;;;;;;;4954142;28;20284;-72
2023/05/11 06:44:01;;;;;;;1999.90;999.90;;;;;;;;;;4951519;29;20794;-71
2023/05/11 06:46:48;;;;;;;1999.90;999.90;;;;;;;;;;4946720;29;20263;-70
2023/05/11 06:49:33;;;;;;;1999.90;999.90;;;;;;;;;;4949866;28;20220;-71
2023/05/11 06:52:18;;;;;;;1999.90;999.90;;;;;;;;;;4954838;28;20213;-71
2023/05/11 06:55:03;;;;;;;1999.90;999.90;;;;;;;;;;4957257;28;20420;-72
2023/05/11 06:57:48;;;;;;;1999.90;999.90;;;;;;;;;;4951454;29;20732;-72
2023/05/11 07:00:34;;;;;;;1999.90;999.90;;;;;;;;;;4946615;29;20229;-72
2023/05/11 07:03:20;;;;;;;1999.90;999.90;;;;;;;;;;4947244;29;20265;-71
2023/05/11 07:06:05;;;;;;;1999.90;999.90;;;;;;;;;;4953628;28;20599;-72
2023/05/11 07:08:50;;;;;;;1999.90;999.90;;;;;;;;;;4958419;28;20693;-72
2023/05/11 07:11:35;;;;;;;1999.90;999.90;;;;;;;;;;4952501;28;20317;-72
2023/05/11 07:14:20;;;;;;;1999.90;999.90;;;;;;;;;;4944622;29;20304;-71
2023/05/11 07:17:05;;;;;;;1999.90;999.90;;;;;;;;;;4950074;28;20280;-72
2023/05/11 07:19:52;;;;;;;1999.90;999.90;;;;;;;;;;4953596;28;20232;-72
2023/05/11 07:22:36;;;;;;;1999.90;999.90;;;;;;;;;;4951256;29;20701;-73
2023/05/11 07:25:21;;;;;;;1999.90;999.90;;;;;;;;;;4948010;28;20212;-72
2023/05/11 07:28:06;;;;;;;1999.90;999.90;;;;;;;;;;4951845;29;20216;-72
2023/05/11 07:30:51;;;;;;;1999.90;999.90;;;;;;;;;;4951628;28;20313;-72
2023/05/11 07:33:37;;;;;;;1999.90;999.90;;;;;;;;;;4950878;28;20246;-72
2023/05/11 07:36:23;;;;;;;1999.90;999.90;;;;;;;;;;4952038;29;20291;-72
2023/05/11 07:39:09;;;;;;;1999.90;999.90;;;;;;;;;;4948335;29;20220;-72
2023/05/11 07:41:54;;;;;;;1999.90;999.90;;;;;;;;;;4956661;28;20756;-72
2023/05/11 07:44:39;;;;;;;1999.90;999.90;;;;;;;;;;4957726;28;20566;-73
2023/05/11 07:47:24;;;;;;;1999.90;999.90;;;;;;;;;;4954619;28;20790;-71
2023/05/11 07:50:09;;;;;;;1999.90;999.90;;;;;;;;;;4957543;28;20267;-73
2023/05/11 07:52:56;;;;;;;1999.90;999.90;;;;;;;;;;4955314;28;20296;-72
2023/05/11 07:55:41;;;;;;;1999.90;999.90;;;;;;;;;;4956014;29;20212;-73
2023/05/11 07:58:26;;;;;;;1999.90;999.90;;;;;;;;;;4956573;29;20204;-72
2023/05/11 08:01:11;;;;;;;1999.90;999.90;;;;;;;;;;4956582;28;20599;-71
2023/05/11 08:03:55;;;;;;;1999.90;999.90;;;;;;;;;;4956746;29;20204;-72
2023/05/11 08:06:40;;;;;;;1999.90;999.90;;;;;;;;;;4956548;29;20287;-72
2023/05/11 08:09:26;;;;;;;1999.90;999.90;;;;;;;;;;4961249;28;20588;-72
2023/05/11 08:12:12;;;;;;;1999.90;999.90;;;;;;;;;;4948095;29;20264;-72
2023/05/11 08:14:57;;;;;;;1999.90;999.90;;;;;;;;;;4954296;29;20312;-72
2023/05/11 08:17:42;;;;;;;1999.90;999.90;;;;;;;;;;4953565;29;20211;-71
2023/05/11 08:20:27;;;;;;;1999.90;999.90;;;;;;;;;;4948002;28;20240;-72
2023/05/11 08:23:16;;;;;;;1999.90;999.90;;;;;;;;;;4949447;29;20213;-73
2023/05/11 08:26:02;;;;;;;1999.90;999.90;;;;;;;;;;4954067;28;20422;-72
2023/05/11 08:28:47;;;;;;;1999.90;999.90;;;;;;;;;;4954471;29;20208;-72
2023/05/11 08:31:32;;;;;;;1999.90;999.90;;;;;;;;;;4947634;28;20238;-71
2023/05/11 08:34:17;;;;;;;1999.90;999.90;;;;;;;;;;4954182;29;20218;-72
2023/05/11 08:37:03;;;;;;;1999.90;999.90;;;;;;;;;;4953307;29;20221;-71
2023/05/11 08:39:48;;;;;;;1999.90;999.90;;;;;;;;;;4954337;28;20225;-73
2023/05/11 08:42:35;;;;;;;1999.90;999.90;;;;;;;;;;4950111;29;20231;-72
2023/05/11 08:45:22;;;;;;;1999.90;999.90;;;;;;;;;;4952990;29;20211;-72
2023/05/11 08:48:07;;;;;;;1999.90;999.90;;;;;;;;;;4949846;29;20215;-72
2023/05/11 08:50:52;;;;;;;1999.90;999.90;;;;;;;;;;4950727;28;20248;-72
2023/05/11 08:53:37;;;;;;;1999.90;999.90;;;;;;;;;;4950370;29;20228;-70
2023/05/11 08:56:25;;;;;;;1999.90;999.90;;;;;;;;;;4948243;29;20223;-72
2023/05/11 08:59:13;;;;;;;1999.90;999.90;;;;;;;;;;4950489;29;20460;-73
2023/05/11 09:01:59;;;;;;;1999.90;999.90;;;;;;;;;;4948162;28;20446;-71
2023/05/11 09:04:44;;;;;;;1999.90;999.90;;;;;;;;;;4952778;28;20594;-71
2023/05/11 09:07:30;;;;;;;1999.90;999.90;;;;;;;;;;4951151;29;20594;-72
2023/05/11 09:10:15;;;;;;;1999.90;999.90;;;;;;;;;;4949080;28;20363;-72
2023/05/11 09:13:00;;;;;;;1999.90;999.90;;;;;;;;;;4949410;29;20212;-73
2023/05/11 09:15:47;;;;;;;1999.90;999.90;;;;;;;;;;4949101;29;20488;-71
2023/05/11 09:18:31;;;;;;;1999.90;999.90;;;;;;;;;;4950375;29;20219;-71
2023/05/11 09:21:17;;;;;;;1999.90;999.90;;;;;;;;;;4950560;28;20243;-72
2023/05/11 09:24:03;;;;;;;1999.90;999.90;;;;;;;;;;4952985;28;20717;-76
2023/05/11 09:26:48;;;;;;;1999.90;999.90;;;;;;;;;;4953900;29;20329;-76
2023/05/11 09:29:33;;;;;;;1999.90;999.90;;;;;;;;;;4952065;29;20699;-77
2023/05/11 09:32:19;;;;;;;1999.90;999.90;;;;;;;;;;4953248;29;20281;-76
2023/05/11 09:35:18;;;;;;;1999.90;999.90;;;;;;;;;;4953648;28;20368;-77
2023/05/11 09:38:04;;;;;;;1999.90;999.90;;;;;;;;;;4948313;28;20270;-75
2023/05/11 09:40:51;;;;;;;1999.90;999.90;;;;;;;;;;4953467;28;20279;-75
2023/05/11 09:43:36;;;;;;;1999.90;999.90;;;;;;;;;;4951129;29;20225;-79
2023/05/11 09:46:21;;;;;;;1999.90;999.90;;;;;;;;;;4948515;28;20207;-77
2023/05/11 09:49:07;;;;;;;1999.90;999.90;;;;;;;;;;4953808;28;20947;-77
2023/05/11 09:52:00;;;;;;;1999.90;999.90;;;;;;;;;;4952276;28;20247;-77
2023/05/11 09:54:45;;;;;;;1999.90;999.90;;;;;;;;;;4952893;28;20235;-76
2023/05/11 09:57:31;;;;;;;1999.90;999.90;;;;;;;;;;4956393;28;20758;-76
2023/05/11 10:00:16;;;;;;;1999.90;999.90;;;;;;;;;;4947109;28;20252;-76
2023/05/11 10:03:02;;;;;;;1999.90;999.90;;;;;;;;;;4952265;29;20274;-75
2023/05/11 10:05:57;;;;;;;1999.90;999.90;;;;;;;;;;4952406;29;20216;-77
2023/05/11 10:08:42;;;;;;;1999.90;999.90;;;;;;;;;;4951059;28;20355;-78
2023/05/11 10:11:27;;;;;;;1999.90;999.90;;;;;;;;;;4946839;29;20341;-75
2023/05/11 10:14:13;;;;;;;1999.90;999.90;;;;;;;;;;4952953;29;20251;-77
2023/05/11 10:16:58;;;;;;;1999.90;999.90;;;;;;;;;;4964042;28;20227;-77
2023/05/11 10:19:43;;;;;;;1999.90;999.90;;;;;;;;;;4964246;28;20219;-77
2023/05/11 10:22:29;;;;;;;1999.90;999.90;;;;;;;;;;4951308;28;20208;-77
2023/05/11 10:25:15;;;;;;;1999.90;999.90;;;;;;;;;;4948989;28;20251;-76
2023/05/11 10:28:00;;;;;;;1999.90;999.90;;;;;;;;;;4964294;28;20234;-76
2023/05/11 10:30:45;;;;;;;1999.90;999.90;;;;;;;;;;4949479;28;20239;-76
2023/05/11 10:33:31;;;;;;;1999.90;999.90;;;;;;;;;;4951412;28;20295;-76
2023/05/11 10:36:16;;;;;;;1999.90;999.90;;;;;;;;;;4948728;29;20351;-75
2023/05/11 10:39:03;;;;;;;1999.90;999.90;;;;;;;;;;4951430;29;20436;-76
2023/05/11 10:41:55;;;;;;;1999.90;999.90;;;;;;;;;;4948539;28;20321;-76
2023/05/11 10:44:56;;;;;;;1999.90;999.90;;;;;;;;;;4950577;28;20284;-76
2023/05/11 10:48:05;;;;;;;1999.90;999.90;;;;;;;;;;4948823;29;20405;-78
2023/05/11 10:51:10;;;;;;;1999.90;999.90;;;;;;;;;;4948609;28;20284;-74
2023/05/11 10:54:01;;;;;;;1999.90;999.90;;;;;;;;;;4950594;28;20221;-74
2023/05/11 10:56:56;;;;;;;1999.90;999.90;;;;;;;;;;4952955;28;20592;-76
2023/05/11 10:59:56;;;;;;;1999.90;999.90;;;;;;;;;;4961128;28;20677;-75
2023/05/11 11:02:41;;;;;;;1999.90;999.90;;;;;;;;;;4951139;28;20222;-75
2023/05/11 11:05:33;;;;;;;1999.90;999.90;;;;;;;;;;4950804;28;20206;-75
2023/05/11 11:08:18;;;;;;;1999.90;999.90;;;;;;;;;;4952400;28;20276;-77
2023/05/11 11:11:23;;;;;;;1999.90;999.90;;;;;;;;;;4945133;28;20435;-77
2023/05/11 11:14:10;;;;;;;1999.90;999.90;;;;;;;;;;4955495;29;20229;-76
2023/05/11 11:17:13;;;;;;;1999.90;999.90;;;;;;;;;;4954483;29;20212;-78
2023/05/11 11:19:59;;;;;;;1999.90;999.90;;;;;;;;;;4956161;28;20366;-77
2023/05/11 11:22:46;;;;;;;1999.90;999.90;;;;;;;;;;4955404;28;20278;-77
2023/05/11 11:25:50;;;;;;;1999.90;999.90;;;;;;;;;;4950807;29;20213;-77
2023/05/11 11:28:55;;;;;;;1999.90;999.90;;;;;;;;;;4953831;29;20352;-78
2023/05/11 11:31:42;;;;;;;1999.90;999.90;;;;;;;;;;4954194;28;20440;-78
2023/05/11 11:34:35;;;;;;;1999.90;999.90;;;;;;;;;;4965131;28;20233;-77
2023/05/11 11:37:21;;;;;;;1999.90;999.90;;;;;;;;;;4954647;28;20253;-76
2023/05/11 11:40:07;;;;;;;1999.90;999.90;;;;;;;;;;4956080;28;20232;-76
2023/05/11 11:42:53;;;;;;;1999.90;999.90;;;;;;;;;;4956460;29;20256;-77
2023/05/11 11:45:38;;;;;;;1999.90;999.90;;;;;;;;;;4956103;29;20208;-76
2023/05/11 11:48:31;;;;;;;1999.90;999.90;;;;;;;;;;4953148;29;20516;-75
2023/05/11 11:51:16;;;;;;;1999.90;999.90;;;;;;;;;;4953566;28;20372;-74
2023/05/11 11:54:01;;;;;;;1999.90;999.90;;;;;;;;;;4968540;28;20724;-77
2023/05/11 11:56:46;;;;;;;1999.90;999.90;;;;;;;;;;4958801;28;20216;-72
2023/05/11 11:59:45;;;;;;;1999.90;999.90;;;;;;;;;;4958029;28;20801;-75
2023/05/11 12:02:30;;;;;;;1999.90;999.90;;;;;;;;;;4956949;29;20721;-75
2023/05/11 12:05:18;;;;;;;1999.90;999.90;;;;;;;;;;4956898;29;20794;-75
2023/05/11 12:08:05;;;;;;;1999.90;999.90;;;;;;;;;;4956736;29;20292;-75
2023/05/11 12:10:53;;;;;;;1999.90;999.90;;;;;;;;;;4956125;28;20597;-74
2023/05/11 12:13:39;;;;;;;1999.90;999.90;;;;;;;;;;4953910;28;20212;-76
2023/05/11 12:16:24;;;;;;;1999.90;999.90;;;;;;;;;;4955235;28;20228;-72
2023/05/11 12:19:09;;;;;;;1999.90;999.90;;;;;;;;;;4953229;28;20440;-76
2023/05/11 12:21:55;;;;;;;1999.90;999.90;;;;;;;;;;4954217;28;20256;-73
2023/05/11 12:24:41;;;;;;;1999.90;999.90;;;;;;;;;;4950241;28;20264;-75
2023/05/11 12:27:26;;;;;;;1999.90;999.90;;;;;;;;;;4956137;28;20325;-75
2023/05/11 12:30:18;;;;;;;1999.90;999.90;;;;;;;;;;4943974;28;20319;-74
2023/05/11 12:33:04;;;;;;;1999.90;999.90;;;;;;;;;;4955616;29;20220;-73
2023/05/11 12:35:51;;;;;;;1999.90;999.90;;;;;;;;;;4955951;29;20577;-75
2023/05/11 12:38:44;;;;;;;1999.90;999.90;;;;;;;;;;4944485;28;20218;-74
2023/05/11 12:41:29;;;;;;;1999.90;999.90;;;;;;;;;;4956018;28;20224;-75
2023/05/11 12:44:14;;;;;;;1999.90;999.90;;;;;;;;;;4964351;28;20209;-75
2023/05/11 12:46:59;;;;;;;1999.90;999.90;;;;;;;;;;4966280;28;20700;-76
2023/05/11 12:49:45;;;;;;;1999.90;999.90;;;;;;;;;;4943241;28;20209;-76
2023/05/11 12:52:29;;;;;;;1999.90;999.90;;;;;;;;;;4953830;28;20217;-76
2023/05/11 12:55:25;;;;;;;1999.90;999.90;;;;;;;;;;4955960;28;20237;-76
2023/05/11 12:58:11;;;;;;;1999.90;999.90;;;;;;;;;;4954524;29;20446;-76
2023/05/11 13:00:57;;;;;;;1999.90;999.90;;;;;;;;;;4952030;28;20284;-75
2023/05/11 13:03:46;;;;;;;1999.90;999.90;;;;;;;;;;4955004;28;20216;-74
2023/05/11 13:06:31;;;;;;;1999.90;999.90;;;;;;;;;;4954152;28;20216;-75
2023/05/11 13:09:21;;;;;;;1999.90;999.90;;;;;;;;;;4951606;29;20806;-75
2023/05/11 13:12:08;;;;;;;1999.90;999.90;;;;;;;;;;4954078;29;20216;-74
2023/05/11 13:15:05;;;;;;;1999.90;999.90;;;;;;;;;;4938572;28;20253;-74
2023/05/11 13:17:55;;;;;;;1999.90;999.90;;;;;;;;;;4949521;28;20587;-75
2023/05/11 13:20:42;;;;;;;1999.90;999.90;;;;;;;;;;4954989;28;20264;-75
2023/05/11 13:23:27;;;;;;;1999.90;999.90;;;;;;;;;;4953927;29;20957;-74
2023/05/11 13:26:12;;;;;;;1999.90;999.90;;;;;;;;;;4950668;29;20762;-74
2023/05/11 13:28:59;;;;;;;1999.90;999.90;;;;;;;;;;4953636;28;20228;-73
2023/05/11 13:31:44;;;;;;;1999.90;999.90;;;;;;;;;;4955292;28;20240;-74
2023/05/11 13:34:29;;;;;;;1999.90;999.90;;;;;;;;;;4963255;28;20223;-76
2023/05/11 13:37:14;;;;;;;1999.90;999.90;;;;;;;;;;4953619;28;20247;-73
2023/05/11 13:39:59;;;;;;;1999.90;999.90;;;;;;;;;;4952806;28;20297;-73
2023/05/11 13:42:44;;;;;;;1999.90;999.90;;;;;;;;;;4952117;29;20208;-71
2023/05/11 13:45:31;;;;;;;1999.90;999.90;;;;;;;;;;4953814;28;20693;-73
2023/05/11 13:48:16;;;;;;;1999.90;999.90;;;;;;;;;;4953240;29;20286;-73
2023/05/11 13:51:01;;;;;;;1999.90;999.90;;;;;;;;;;4952723;28;20604;-73
2023/05/11 13:53:46;;;;;;;1999.90;999.90;;;;;;;;;;4954988;28;20208;-73
2023/05/11 13:56:31;;;;;;;1999.90;999.90;;;;;;;;;;4953919;29;20440;-73
2023/05/11 13:59:16;;;;;;;1999.90;999.90;;;;;;;;;;4957239;28;20216;-73
2023/05/11 14:02:02;;;;;;;1999.90;999.90;;;;;;;;;;4973757;28;20352;-74
2023/05/11 14:04:47;;;;;;;1999.90;999.90;;;;;;;;;;4966599;28;20241;-72
2023/05/11 14:07:32;;;;;;;1999.90;999.90;;;;;;;;;;4960186;28;20705;-73
2023/05/11 14:10:18;;;;;;;1999.90;999.90;;;;;;;;;;4973689;28;20248;-73
2023/05/11 14:13:02;;;;;;;1999.90;999.90;;;;;;;;;;4972587;28;20977;-72
2023/05/11 14:15:48;;;;;;;1999.90;999.90;;;;;;;;;;4964772;28;20230;-71
2023/05/11 14:18:34;;;;;;;1999.90;999.90;;;;;;;;;;4946142;29;20212;-73
2023/05/11 14:21:19;;;;;;;1999.90;999.90;;;;;;;;;;4947591;29;20610;-72
2023/05/11 14:24:04;;;;;;;1999.90;999.90;;;;;;;;;;4962118;28;20313;-70
2023/05/11 14:26:49;;;;;;;1999.90;999.90;;;;;;;;;;4964838;28;20215;-71
2023/05/11 14:29:34;;;;;;;1999.90;999.90;;;;;;;;;;4949489;29;20215;-73
2023/05/11 14:32:19;;;;;;;1999.90;999.90;;;;;;;;;;4936460;29;20365;-72
2023/05/11 14:35:05;;;;;;;1999.90;999.90;;;;;;;;;;4954081;28;20234;-73
2023/05/11 14:37:51;;;;;;;1999.90;999.90;;;;;;;;;;4970942;28;20890;-72
2023/05/11 14:40:36;;;;;;;1999.90;999.90;;;;;;;;;;4950648;28;20245;-73
2023/05/11 14:43:23;;;;;;;1999.90;999.90;;;;;;;;;;4953263;29;20202;-72
2023/05/11 14:46:08;;;;;;;1999.90;999.90;;;;;;;;;;4953262;28;20575;-73
2023/05/11 14:48:53;;;;;;;1999.90;999.90;;;;;;;;;;4952137;28;20217;-71
2023/05/11 14:51:39;;;;;;;1999.90;999.90;;;;;;;;;;4952544;28;20239;-73
2023/05/11 14:54:24;;;;;;;1999.90;999.90;;;;;;;;;;4949307;28;20220;-74
2023/05/11 14:57:09;;;;;;;1999.90;999.90;;;;;;;;;;4952451;28;20248;-73
2023/05/11 14:59:54;;;;;;;1999.90;999.90;;;;;;;;;;4951849;28;20223;-74
2023/05/11 15:02:39;;;;;;;1999.90;999.90;;;;;;;;;;4952901;29;20212;-75
2023/05/11 15:05:25;;;;;;;1999.90;999.90;;;;;;;;;;4944696;28;20464;-74
2023/05/11 15:08:12;;;;;;;1999.90;999.90;;;;;;;;;;4950771;28;20601;-77
2023/05/11 15:10:57;;;;;;;1999.90;999.90;;;;;;;;;;4951109;28;20233;-73
2023/05/11 15:13:42;;;;;;;1999.90;999.90;;;;;;;;;;4952581;29;20582;-73
2023/05/11 15:16:27;;;;;;;1999.90;999.90;;;;;;;;;;4952320;29;20216;-73
2023/05/11 15:19:12;;;;;;;1999.90;999.90;;;;;;;;;;4949367;29;20361;-74
2023/05/11 15:21:57;;;;;;;1999.90;999.90;;;;;;;;;;4951280;28;20237;-73
2023/05/11 15:24:43;;;;;;;1999.90;999.90;;;;;;;;;;4953650;29;20335;-73
2023/05/11 15:27:28;;;;;;;1999.90;999.90;;;;;;;;;;4934448;29;20209;-74
2023/05/11 15:30:13;;;;;;;1999.90;999.90;;;;;;;;;;4952867;28;20249;-73
2023/05/11 15:32:58;;;;;;;1999.90;999.90;;;;;;;;;;4955732;28;20713;-75
2023/05/11 15:35:44;;;;;;;1999.90;999.90;;;;;;;;;;4952773;29;20225;-73
2023/05/11 15:38:29;;;;;;;1999.90;999.90;;;;;;;;;;4954377;28;20294;-73
2023/05/11 15:41:16;;;;;;;1999.90;999.90;;;;;;;;;;4950717;28;20257;-72
2023/05/11 15:44:01;;;;;;;1999.90;999.90;;;;;;;;;;4948953;29;20451;-74
2023/05/11 15:46:46;;;;;;;1999.90;999.90;;;;;;;;;;4949354;29;20216;-71
2023/05/11 15:49:31;;;;;;;1999.90;999.90;;;;;;;;;;4952047;29;20213;-74
2023/05/11 15:52:16;;;;;;;1999.90;999.90;;;;;;;;;;4950394;29;20578;-76
2023/05/11 15:55:01;;;;;;;1999.90;999.90;;;;;;;;;;4952442;28;20214;-74
2023/05/11 15:57:47;;;;;;;1999.90;999.90;;;;;;;;;;4960400;28;20272;-76
2023/05/11 16:00:32;;;;;;;1999.90;999.90;;;;;;;;;;4957519;28;20311;-74
2023/05/11 16:03:18;;;;;;;1999.90;999.90;;;;;;;;;;4949996;29;20206;-75
2023/05/11 16:06:03;;;;;;;1999.90;999.90;;;;;;;;;;4956464;28;20278;-75
2023/05/11 16:08:48;;;;;;;1999.90;999.90;;;;;;;;;;4954571;28;20237;-72
2023/05/11 16:11:33;;;;;;;1999.90;999.90;;;;;;;;;;4968345;28;20236;-75
2023/05/11 16:14:20;;;;;;;1999.90;999.90;;;;;;;;;;4963130;28;20289;-75
2023/05/11 16:17:05;;;;;;;1999.90;999.90;;;;;;;;;;4954917;29;20237;-75
2023/05/11 16:19:50;;;;;;;1999.90;999.90;;;;;;;;;;4954246;28;20216;-75
2023/05/11 16:22:37;;;;;;;1999.90;999.90;;;;;;;;;;4954441;29;20265;-73
2023/05/11 16:25:22;;;;;;;1999.90;999.90;;;;;;;;;;4955182;28;20907;-71
2023/05/11 16:28:07;;;;;;;1999.90;999.90;;;;;;;;;;4955534;29;20209;-71
2023/05/11 16:30:54;;;;;;;1999.90;999.90;;;;;;;;;;4955815;28;20740;-72
2023/05/11 16:33:39;;;;;;;1999.90;999.90;;;;;;;;;;4965965;28;20236;-71
2023/05/11 16:36:24;;;;;;;1999.90;999.90;;;;;;;;;;4950196;29;20220;-71
2023/05/11 16:39:09;;;;;;;1999.90;999.90;;;;;;;;;;4956325;29;20205;-72
2023/05/11 16:41:55;;;;;;;1999.90;999.90;;;;;;;;;;4970557;28;20423;-71
2023/05/11 16:44:40;;;;;;;1999.90;999.90;;;;;;;;;;4955913;29;20286;-72
2023/05/11 16:47:26;;;;;;;1999.90;999.90;;;;;;;;;;4936605;29;20213;-72
2023/05/11 16:50:12;;;;;;;1999.90;999.90;;;;;;;;;;4968786;28;20235;-72
2023/05/11 16:52:57;;;;;;;1999.90;999.90;;;;;;;;;;4975374;28;20204;-72
2023/05/11 16:55:42;;;;;;;1999.90;999.90;;;;;;;;;;4975009;28;20219;-71
2023/05/11 16:58:28;;;;;;;1999.90;999.90;;;;;;;;;;4958583;28;20291;-72
2023/05/11 17:01:13;;;;;;;1999.90;999.90;;;;;;;;;;4936301;29;20233;-71
2023/05/11 17:04:00;;;;;;;1999.90;999.90;;;;;;;;;;4936592;29;20209;-73
2023/05/11 17:06:45;;;;;;;1999.90;999.90;;;;;;;;;;4949063;28;20284;-70
2023/05/11 17:09:29;;;;;;;1999.90;999.90;;;;;;;;;;4955477;29;20213;-72
2023/05/11 17:12:14;;;;;;;1999.90;999.90;;;;;;;;;;4955148;29;20209;-73
2023/05/11 17:14:59;;;;;;;1999.90;999.90;;;;;;;;;;4955541;29;20581;-73
2023/05/11 17:17:44;;;;;;;1999.90;999.90;;;;;;;;;;4954937;29;20706;-72
2023/05/11 17:20:30;;;;;;;1999.90;999.90;;;;;;;;;;4955113;28;20244;-72
2023/05/11 17:23:15;;;;;;;1999.90;999.90;;;;;;;;;;4955275;29;20288;-74
2023/05/11 17:26:06;;;;;;;1999.90;999.90;;;;;;;;;;4935932;29;20213;-73
2023/05/11 17:28:51;;;;;;;1999.90;999.90;;;;;;;;;;4936002;29;20205;-73
2023/05/11 17:31:36;;;;;;;1999.90;999.90;;;;;;;;;;4935166;29;20642;-73
2023/05/11 17:34:21;;;;;;;1999.90;999.90;;;;;;;;;;4939046;28;20303;-72
2023/05/11 17:37:08;;;;;;;1999.90;999.90;;;;;;;;;;4974162;28;20231;-72
2023/05/11 17:39:53;;;;;;;1999.90;999.90;;;;;;;;;;4957642;28;20283;-73
2023/05/11 17:42:38;;;;;;;1999.90;999.90;;;;;;;;;;4954574;29;20230;-72
2023/05/11 17:45:23;;;;;;;1999.90;999.90;;;;;;;;;;4964622;28;20210;-72
2023/05/11 17:48:08;;;;;;;1999.90;999.90;;;;;;;;;;4973602;28;20204;-73